Salem, UT (84653)

9:17 PM MDT on October 20, 2014 (GMT -0600)
Ironrod | Change Station
CLOSE
Current Station
Personal Weather Station
Location: Elk Ridge, UT
Elevation: 5420 ft
Nearby Weather Stations

Elev 5420 ft 40.01 °N, 111.68 °W | Updated 2 minutes ago

Partly Cloudy
Partly Cloudy
61.3 °F
Feels Like 61.3 °F
N
10.0
Wind Variable Wind from SSE
Gusts 18.0 mph

Today
High -- | Low -- °F
--% Chance of Precip.
Yesterday
High -- | Low -- °F
Precip. -- in
7:42 AM 6:39 PM
Waning Crescent, 8% visible
Pressure 29.95 in
Visibility 10.0 miles
Clouds Scattered Clouds 11000 ft
Dew Point 33 °F
Humidity 34%
Rainfall 0.00 in
Snow Depth 0 in
UV 0 out of 12
Pollen 2.00 out of 12
Air Quality Not available.
Flu Activity Sporadic
METAR KPVU 210255Z AUTO 15012KT 10SM SCT110 19/05 A2995 RMK AO1 54000

More Conditions Fewer Conditions

Pressure 29.95 in
Visibility 10.0 miles
Clouds Scattered Clouds 11000 ft
Dew Point 33 °F
Humidity 34%
Rainfall 0.00 in
Snow Depth 0 in
UV 0 out of 12
Pollen 2.00 out of 12
Air Quality Not available.
Flu Activity Sporadic
METAR KPVU 210255Z AUTO 15012KT 10SM SCT110 19/05 A2995 RMK AO1 54000

More Conditions Fewer Conditions

10-Day Weather Forecast

Almanac

Astronomy

Oct. 20, 2014 Rise Set
Actual Time 7:42 AM MDT 6:39 PM MDT
Civil Twilight 7:15 AM MDT 7:07 PM MDT
Nautical Twilight 6:43 AM MDT 7:38 PM MDT
Astronomical Twilight 6:12 AM MDT 8:09 PM MDT
Moon 4:34 AM MDT (10/20) 5:04 PM MDT (10/20)
Length of Visible Light 11h 52m
Length of Day
10h 57m
Tomorrow will be 2m 30s shorter.
Waning Crescent, 8% of the Moon is Illuminated
Today
Waning Crescent
Oct 23
New
Oct 30
First Quarter
Nov 6
Full
Nov 14
Last Quarter

Today's Extremes

State Highs State Lows

Community

WunderPhotos

Upload Photos

1,763,589 photos uploaded!

Nearby

Snow Depth

Station Depth Elevation
Cascade Mountain 0 in 7768 ft
Clear Creek #2 0 in 8300 ft
Strawberry Divide 0 in 8400 ft
Daniels-Strawberry 0 in 8000 ft
Currant Creek 0 in 8000 ft

Earthquake Activity

City Distance Mag. Time & Date
No recent earthquake activity has been reported nearby.
Minimum magnitude displayed is 2.5.

Coastal Water Temperatures

Place Temperature
No Stations Reporting

Nearby Weather Stations